Date,TemperatureHighF,TemperatureAvgF,TemperatureLowF,DewpointHighF,DewpointAvgF,DewpointLowF,HumidityHigh,HumidityAvg,HumidityLow,PressureMaxIn,PressureMinIn,WindSpeedMaxMPH,WindSpeedAvgMPH,GustSpeedMaxMPH,PrecipitationSumIn
2014-1-1,71.4,47.1,33.1,42.9,34.9,28.8,88,66,33,30.15,30.05,2,0,2,0.03
2014-1-2,74.3,49.5,36.0,45.8,37.0,30.4,82,65,35,30.11,29.98,1,0,6,0.00
2014-1-3,72.3,49.9,37.6,46.7,38.9,32.9,84,68,38,30.01,29.88,2,0,2,0.03
2014-1-4,75.0,50.0,36.5,45.0,35.6,21.0,88,62,32,30.02,29.90,5,0,5,0.03
2014-1-5,74.6,50.0,35.1,44.1,33.4,21.6,76,55,33,30.15,30.01,2,0,4,0.03
2014-1-6,66.3,48.3,36.5,46.4,38.6,31.1,84,70,46,30.23,30.09,2,0,2,0.03
2014-1-7,72.5,52.1,41.3,50.2,42.8,37.7,94,73,36,30.14,30.05,3,0,3,0.03
2014-1-8,61.0,53.2,46.4,53.1,50.6,44.6,99,91,73,30.16,30.07,3,0,3,0.03
2014-1-9,70.3,52.8,44.0,56.0,48.5,42.5,100,86,59,30.19,30.09,5,0,5,0.03
2014-1-10,73.7,51.4,39.0,54.7,45.0,36.8,95,80,50,30.23,30.09,1,0,1,0.03
2014-1-11,58.6,44.8,38.1,53.0,42.4,37.1,96,91,70,30.28,30.09,5,0,5,0.03
2014-1-12,61.6,50.6,40.8,45.6,36.3,29.7,97,61,34,30.39,30.29,3,0,6,0.00
2014-1-13,66.2,51.7,40.0,38.3,35.4,33.1,77,56,31,30.46,30.34,5,0,6,0.00
2014-1-14,70.1,52.4,36.5,35.3,29.5,25.1,83,47,19,30.47,30.32,3,0,9,0.00
2014-1-15,70.4,50.6,36.0,38.2,32.7,29.0,80,54,26,30.36,30.20,7,0,10,0.00
2014-1-16,72.5,49.3,32.9,37.4,33.0,29.3,88,59,25,30.25,30.13,5,0,6,0.00
2014-1-17,72.3,48.2,31.0,39.2,33.2,28.9,93,62,25,30.21,30.11,2,0,6,0.00
2014-1-18,74.1,48.7,30.5,39.0,31.6,28.5,94,60,19,30.18,30.06,3,0,6,0.00
2014-1-19,71.5,46.6,29.9,36.6,32.2,26.8,93,62,21,30.18,30.06,3,0,7,0.00
2014-1-20,72.4,47.7,30.0,36.1,30.8,26.9,93,60,19,30.24,30.06,3,0,7,0.00
2014-1-21,72.0,46.1,30.1,34.0,29.3,26.6,93,59,20,30.28,30.14,3,0,4,0.00
2014-1-22,75.7,48.2,30.5,32.1,26.9,16.7,89,53,11,30.26,29.92,4,0,4,0.00
2014-1-23,68.1,47.8,30.6,34.7,31.6,25.4,86,57,20,30.19,29.88,6,0,9,0.00
2014-1-24,70.6,49.6,34.3,38.0,34.4,28.5,87,61,26,30.27,29.88,3,0,9,0.00
2014-1-25,75.0,52.5,34.6,37.6,32.6,26.5,88,54,17,30.27,30.02,4,0,6,0.00
2014-1-26,74.9,52.7,37.9,37.3,32.8,27.0,88,52,17,30.27,30.01,2,0,7,0.00
2014-1-27,73.8,51.0,37.3,47.6,40.9,29.5,95,71,21,30.19,30.01,4,0,7,0.00
2014-1-28,70.9,57.7,37.5,56.4,49.1,33.0,94,74,48,30.25,30.07,3,0,7,0.00
2014-1-29,70.5,59.6,49.9,58.3,55.3,45.3,95,86,48,30.25,29.96,6,0,7,0.00
2014-1-30,64.5,54.6,50.3,58.2,48.0,42.0,95,80,51,30.20,29.84,5,0,8,0.08
2014-1-31,62.4,50.1,39.8,51.2,42.0,22.6,97,78,23,30.07,29.84,7,0,8,0.08
2014-2-1,62.5,50.6,40.4,45.1,38.7,25.5,97,68,25,30.07,29.90,2,0,8,0.00
2014-2-2,61.9,43.8,30.0,44.2,40.9,26.2,94,90,75,30.17,29.87,4,0,6,0.40
2014-2-3,57.6,45.2,36.7,43.4,39.3,35.5,98,81,54,30.08,29.98,6,0,6,3.91
2014-2-4,57.1,43.5,32.2,42.4,36.9,31.3,97,80,47,30.17,30.06,4,0,4,0.00
2014-2-5,57.9,45.0,32.4,43.5,37.8,31.4,97,78,45,30.21,30.06,6,0,6,0.01
2014-2-6,55.1,49.3,44.8,49.1,45.8,43.2,95,88,73,30.06,29.89,3,0,5,0.57
2014-2-7,55.4,51.8,47.4,50.9,48.5,46.0,96,88,78,30.09,29.99,22,1,22,0.23
2014-2-8,62.4,57.7,53.7,56.4,53.1,49.3,92,85,75,30.15,30.04,19,2,19,0.24
2014-2-9,60.8,57.6,55.4,56.2,54.7,53.5,95,90,80,30.16,30.05,8,1,12,0.48
2014-2-10,62.5,55.5,49.1,55.0,52.4,48.0,97,89,73,30.27,30.10,7,0,7,0.02
2014-2-11,66.6,52.9,46.5,51.5,48.2,45.4,98,85,52,30.25,30.15,2,0,4,0.00
2014-2-12,67.7,52.9,42.2,49.0,45.4,41.4,98,79,41,30.29,30.16,5,0,5,0.00
2014-2-13,75.3,58.7,47.0,58.4,52.2,45.7,96,81,53,30.21,30.08,2,0,5,0.00
2014-2-14,66.0,56.9,48.7,56.5,52.7,47.0,97,86,62,30.15,30.05,6,0,6,0.00
2014-2-15,60.7,51.2,44.3,53.5,48.1,43.6,98,90,76,30.05,29.96,9,0,9,0.00
2014-2-16,67.4,54.7,42.1,53.1,42.7,32.2,98,69,30,30.20,30.02,10,0,10,0.02
2014-2-17,64.5,49.3,36.3,46.6,41.0,35.1,96,76,41,30.18,30.10,8,0,8,0.00
2014-2-18,66.9,50.8,37.7,49.5,43.3,36.8,97,78,37,30.21,30.07,6,0,6,0.00
2014-2-19,68.2,55.6,44.6,51.5,45.8,36.3,95,73,31,30.20,30.08,7,0,7,0.02
2014-2-20,69.6,52.6,37.7,42.2,37.5,32.9,96,63,29,30.22,30.10,8,0,8,0.00
2014-2-21,74.2,53.8,37.0,42.9,39.3,35.1,94,64,26,30.12,29.96,5,0,5,0.00
2014-2-22,74.5,54.7,39.0,45.3,41.1,35.2,95,66,26,30.02,29.90,9,0,9,0.00
2014-2-23,77.7,54.0,38.4,48.6,43.5,35.3,97,74,24,30.03,29.92,6,0,6,0.00
2014-2-24,76.9,55.6,37.0,46.1,42.3,36.2,98,67,28,30.00,29.89,6,0,6,0.00
2014-2-25,72.3,54.4,41.2,50.1,45.8,39.9,96,75,42,29.97,29.86,8,0,8,0.00
2014-2-26,59.7,55.7,50.7,55.1,51.2,46.4,93,85,75,29.94,29.68,17,1,17,0.73
2014-2-27,67.3,58.0,52.5,51.7,48.1,44.2,89,71,47,29.90,29.52,16,1,16,0.03
2014-2-28,61.4,55.0,50.5,53.4,49.6,43.0,96,82,58,29.52,29.36,15,1,15,0.91
2014-3-1,68.3,57.6,49.1,48.8,47.2,45.1,90,70,47,29.82,29.48,10,1,10,0.01
2014-3-2,61.9,53.1,46.1,54.5,48.4,44.6,95,85,66,30.18,29.81,16,1,16,0.00
2014-3-3,61.5,52.1,43.5,51.8,47.2,42.7,97,85,61,30.17,30.03,3,0,3,0.08
2014-3-4,68.0,58.2,52.4,56.3,53.2,50.4,96,84,62,30.11,30.03,5,0,5,0.00
2014-3-5,72.4,58.6,50.9,57.1,51.9,47.1,97,81,53,30.10,29.98,15,1,15,0.17
2014-3-6,67.7,58.7,48.4,57.3,51.2,45.9,97,78,48,30.18,30.03,6,0,9,0.03
2014-3-7,72.2,55.0,41.7,49.7,45.2,41.0,98,74,34,30.18,30.08,7,0,7,0.00
2014-3-8,74.4,57.1,40.5,50.4,46.0,39.3,97,70,37,30.20,30.10,5,0,5,0.00
2014-3-9,77.5,63.7,53.8,56.6,51.9,45.4,87,67,45,30.19,30.05,5,0,5,0.00
2014-3-10,71.2,60.1,50.7,53.0,46.6,39.5,91,63,35,30.22,30.07,10,0,10,0.03
2014-3-11,70.9,59.7,47.4,41.2,31.7,19.2,75,37,20,30.19,30.01,12,1,12,0.00
2014-3-12,76.8,63.1,50.3,36.0,28.7,19.1,51,29,16,30.10,29.99,8,1,17,0.00
2014-3-13,80.5,58.6,39.3,46.2,35.4,23.2,87,50,13,30.06,29.94,7,0,7,0.00
2014-3-14,77.7,57.6,41.2,51.3,46.4,39.9,96,70,34,30.21,30.04,6,0,6,0.00
2014-3-15,82.7,61.7,43.0,49.7,43.0,30.0,96,59,15,30.30,30.21,7,0,7,0.00
2014-3-16,85.7,61.3,42.8,48.2,43.2,32.1,94,59,19,30.30,30.15,9,0,9,0.00
2014-3-17,71.8,57.7,47.0,49.7,42.3,33.0,88,61,28,30.22,29.96,10,1,10,0.00
2014-3-18,74.0,56.3,39.8,38.2,32.2,24.1,86,47,17,29.97,29.88,12,0,12,0.00
2014-3-19,79.3,57.5,38.0,42.3,37.0,32.1,87,52,22,30.08,29.97,5,0,5,0.00
2014-3-20,79.7,59.7,46.0,46.5,42.3,33.1,85,58,20,30.05,29.91,7,0,7,0.00
2014-3-21,72.5,55.0,40.6,49.1,44.6,39.2,96,71,40,29.98,29.90,8,0,8,0.00
2014-3-22,75.0,55.7,40.8,49.8,44.2,39.7,97,70,32,30.10,29.98,8,0,8,0.00
2014-3-23,76.1,57.4,42.3,50.5,44.8,40.1,95,68,30,30.17,30.05,7,0,7,0.00
2014-3-24,81.2,60.4,40.1,45.5,41.9,38.5,96,58,25,30.14,29.99,8,0,8,0.00
2014-3-25,66.3,54.1,41.4,55.0,45.9,37.5,87,74,53,30.03,29.85,10,0,10,0.04
2014-3-26,62.8,54.0,50.0,54.0,48.1,46.0,94,81,57,29.97,29.81,7,1,12,0.47
2014-3-27,66.8,56.1,47.9,48.5,46.1,43.6,92,71,45,30.14,29.97,12,0,12,0.02
2014-3-28,72.8,58.7,46.4,51.3,47.9,44.6,95,70,41,30.18,30.08,10,0,10,0.00
2014-3-29,61.9,56.1,50.9,56.4,50.1,47.1,92,81,69,30.13,29.99,11,1,11,0.31
2014-3-30,62.7,52.6,42.4,48.0,43.7,40.1,97,74,44,30.12,30.02,9,0,9,0.00
2014-3-31,58.0,47.4,40.2,45.9,42.2,38.9,96,83,55,30.08,29.83,24,1,24,0.54
2014-4-1,58.1,47.3,39.9,47.8,42.3,38.6,96,84,54,29.94,29.83,15,1,15,0.40
2014-4-2,63.7,50.4,38.8,45.9,41.7,37.8,97,75,40,30.10,29.86,7,0,7,0.03
2014-4-3,69.2,52.5,39.1,47.7,42.2,38.0,97,72,37,30.11,30.01,9,1,9,0.00
2014-4-4,63.2,52.4,46.3,49.8,45.3,41.2,95,78,49,30.05,29.97,11,0,11,0.12
2014-4-5,69.2,54.9,41.9,49.5,46.3,41.1,98,76,45,30.19,30.04,5,1,7,0.01
2014-4-6,81.8,61.1,42.3,51.9,47.3,41.2,97,66,27,30.23,30.08,7,0,8,0.00
2014-4-7,85.0,65.5,47.0,57.3,52.0,45.7,96,66,36,30.15,30.04,6,0,6,0.00
2014-4-8,88.3,67.8,50.2,59.2,53.1,47.0,97,64,28,30.10,29.98,9,0,9,0.00
2014-4-9,81.6,64.4,49.9,55.2,46.6,29.3,94,59,16,30.06,29.95,8,0,8,0.00
2014-4-10,87.6,63.8,42.5,53.1,45.0,34.1,96,58,16,30.01,29.85,7,0,7,0.00
2014-4-11,75.7,61.1,50.7,55.2,50.3,47.0,90,69,40,29.91,29.81,4,0,9,0.00
2014-4-12,74.8,58.8,50.5,50.7,48.3,45.7,87,70,38,29.93,29.83,15,1,15,0.00
2014-4-13,82.4,63.0,53.1,52.0,48.6,40.3,83,63,23,30.03,29.92,8,0,8,0.00
2014-4-14,84.3,62.8,46.9,54.3,48.8,43.1,96,66,25,30.09,29.99,8,0,8,0.00
2014-4-15,79.8,61.6,49.1,53.8,49.6,44.4,94,68,30,30.04,29.86,10,1,10,0.00
2014-4-16,83.9,64.1,45.7,51.6,46.9,42.2,96,60,26,29.92,29.78,8,0,8,0.00
2014-4-17,78.8,62.0,48.4,55.4,50.0,46.2,93,67,42,29.86,29.78,9,0,9,0.00
2014-4-18,76.1,60.6,47.5,52.3,48.0,44.0,95,67,38,29.93,29.85,11,1,11,0.00
2014-4-19,71.8,57.9,45.9,52.9,46.6,34.0,92,70,28,30.12,29.93,10,0,10,0.00
2014-4-20,84.2,64.3,48.7,53.2,46.9,37.0,95,60,26,30.14,30.02,6,0,6,0.00
2014-4-21,79.1,60.7,46.5,48.0,42.2,25.5,85,55,16,30.06,29.94,9,1,9,0.00
2014-4-22,66.0,56.4,48.4,50.0,42.4,35.2,88,62,36,30.11,29.94,12,1,12,0.00
2014-4-23,71.0,56.7,42.2,48.7,42.2,36.4,90,62,34,30.14,30.06,8,1,8,0.00
2014-4-24,71.2,59.1,48.0,52.6,49.8,44.4,94,73,41,30.10,29.97,9,1,9,0.00
2014-4-25,58.4,54.1,47.3,53.3,48.7,43.3,93,82,65,29.97,29.78,13,1,13,0.51
2014-4-26,64.1,53.0,41.2,46.5,42.8,39.3,97,71,41,30.08,29.83,11,1,14,0.00
2014-4-27,68.6,57.0,49.4,51.8,45.7,41.6,86,67,45,30.12,30.03,9,1,10,0.00
2014-4-28,77.8,59.5,44.0,50.8,46.5,38.9,96,67,27,30.21,30.12,10,0,10,0.00
2014-4-29,89.5,68.3,45.9,50.4,43.6,37.0,93,51,17,30.20,30.02,11,1,11,0.00
2014-4-30,94.5,72.8,51.2,51.8,48.5,45.2,88,49,20,30.08,29.97,7,0,7,0.00
2014-5-1,95.8,73.9,52.4,52.0,46.1,28.9,90,44,16,30.07,30.01,10,0,10,0.00
2014-5-2,88.5,68.8,48.9,52.6,42.4,32.7,88,45,16,30.06,29.96,8,0,8,0.00
2014-5-3,71.7,60.5,51.5,52.4,49.5,45.0,94,70,42,30.03,29.97,11,1,11,0.00
2014-5-4,71.3,60.8,52.2,51.7,49.8,48.2,87,68,48,30.04,29.98,12,1,12,0.00
2014-5-5,69.3,59.4,51.6,49.7,47.1,42.8,82,66,41,30.04,29.93,16,1,16,0.00
2014-5-6,72.7,59.4,48.7,48.1,44.2,40.1,85,60,35,29.94,29.85,13,1,13,0.00
2014-5-7,72.5,57.2,45.9,49.0,45.9,43.4,92,68,41,30.00,29.88,10,1,10,0.00
2014-5-8,69.7,59.8,50.5,56.2,50.6,44.7,86,72,57,30.08,29.99,9,1,9,0.00
2014-5-9,71.3,61.1,52.4,55.5,50.2,45.6,93,70,43,30.14,30.07,11,1,11,0.00
2014-5-10,71.8,59.8,48.5,48.2,45.1,39.3,90,62,32,30.13,29.99,12,1,12,0.00
2014-5-11,82.3,64.4,45.1,46.9,38.6,25.9,92,48,13,30.08,29.97,10,1,10,0.00
2014-5-12,90.8,68.9,45.0,44.0,38.7,26.0,85,42,11,30.09,29.99,12,0,12,0.00
2014-5-13,97.0,74.3,49.4,44.3,40.1,34.0,77,36,12,30.12,30.02,8,0,8,0.00
2014-5-14,99.3,77.1,51.9,46.2,40.5,30.8,76,34,10,30.12,30.00,12,0,12,0.00
2014-5-15,96.5,75.3,52.8,47.1,40.1,23.5,71,34,9,30.08,29.99,12,0,12,0.00
2014-5-16,89.3,69.3,51.3,50.8,45.0,34.4,75,46,16,30.06,29.95,9,1,9,0.00
2014-5-17,75.5,62.7,52.4,52.1,49.8,46.5,89,65,37,29.99,29.92,9,1,9,0.00
2014-5-18,73.4,61.9,53.8,53.2,49.8,44.5,82,66,37,29.98,29.92,14,1,14,0.00
2014-5-19,69.5,59.7,53.6,51.1,49.0,46.7,85,69,47,29.95,29.91,12,1,12,0.00
2014-5-20,75.3,61.8,52.4,50.9,48.9,46.8,83,65,40,29.98,29.92,11,1,11,0.00
2014-5-21,81.5,64.8,51.8,54.4,51.0,48.7,91,65,36,29.96,29.87,9,1,9,0.00
2014-5-22,82.3,64.8,51.9,55.6,52.2,48.9,92,67,38,30.00,29.88,9,0,9,0.00
2014-5-23,85.6,65.9,52.6,56.0,52.5,49.9,91,65,32,30.01,29.89,11,1,11,0.00
2014-5-24,85.2,65.3,54.7,56.0,52.0,49.1,86,65,35,29.98,29.88,10,0,10,0.00
2014-5-25,93.0,70.9,52.5,54.0,49.4,43.9,89,53,20,29.95,29.86,10,0,10,0.00
2014-5-26,89.8,70.7,52.0,53.3,48.2,37.4,81,49,25,29.99,29.92,10,1,10,0.00
2014-5-27,83.6,66.2,52.4,50.3,44.8,31.8,84,52,17,30.02,29.93,9,1,9,0.00
2014-5-28,83.5,65.4,47.7,47.3,42.1,30.2,89,50,16,30.05,29.92,10,1,10,0.00
2014-5-29,86.8,67.2,47.3,46.6,39.8,20.6,85,45,13,29.93,29.86,10,0,10,0.00
2014-5-30,75.3,60.0,46.2,51.4,47.9,42.4,91,67,40,29.96,29.88,13,1,13,0.00
2014-5-31,85.0,65.1,47.6,52.0,47.2,40.8,94,58,24,29.95,29.86,9,0,9,0.00
2014-6-1,89.8,69.6,50.4,52.7,45.2,37.8,92,49,17,29.89,29.75,9,0,9,0.00
2014-6-2,77.5,62.2,51.5,52.5,49.6,44.8,89,66,37,29.89,29.78,13,1,13,0.00
2014-6-3,85.5,64.6,48.8,53.0,49.3,42.8,95,63,27,29.92,29.82,9,1,9,0.00
2014-6-4,93.3,70.7,50.1,55.5,48.8,37.4,94,54,16,29.88,29.77,12,1,12,0.00
2014-6-5,90.8,71.8,54.3,54.8,49.2,39.4,84,50,19,29.83,29.75,10,1,10,0.00
2014-6-6,87.3,67.9,52.6,55.2,52.1,49.3,91,61,31,29.81,29.73,11,1,11,0.00
2014-6-7,91.6,70.9,51.2,57.7,53.0,48.8,95,59,27,29.83,29.72,8,0,8,0.00
2014-6-8,107.0,82.7,58.6,58.7,50.7,39.6,85,42,11,29.80,29.66,8,1,8,0.00
2014-6-9,106.3,83.0,60.1,55.6,49.6,40.3,74,37,11,29.72,29.61,9,0,9,0.00
2014-6-10,87.3,71.6,59.0,58.8,54.2,51.1,85,57,31,29.78,29.67,12,1,12,0.00
2014-6-11,82.7,66.4,55.3,56.3,53.6,51.3,88,67,37,29.88,29.77,14,1,14,0.00
2014-6-12,77.7,64.0,55.5,53.0,50.6,45.0,85,65,32,29.95,29.87,11,1,11,0.00
2014-6-13,86.5,66.8,48.8,51.6,47.9,32.7,94,57,18,29.97,29.88,11,0,11,0.00
2014-6-14,91.0,70.0,51.7,50.1,45.4,28.8,87,49,14,29.92,29.80,10,0,10,0.00
2014-6-15,81.0,63.9,53.5,51.2,49.4,46.6,83,62,30,29.84,29.76,12,1,12,0.00
2014-6-16,71.3,61.2,51.9,49.4,47.2,43.6,81,62,40,29.90,29.81,11,1,11,0.00
2014-6-17,81.8,65.1,47.7,47.6,43.4,35.6,88,51,25,29.94,29.86,11,1,11,0.00
2014-6-18,91.5,70.9,48.5,46.0,39.7,29.8,76,38,13,29.93,29.88,11,1,11,0.00
2014-6-19,90.5,72.4,51.3,51.5,45.6,32.8,85,44,13,29.96,29.90,12,1,12,0.00
2014-6-20,91.8,71.3,53.2,54.7,49.0,41.1,89,52,21,29.96,29.88,13,1,13,0.00
2014-6-21,79.4,64.7,54.3,51.7,49.0,45.2,82,60,31,29.91,29.84,12,1,12,0.00
2014-6-22,84.2,63.8,48.5,52.4,49.9,46.3,94,65,32,29.93,29.86,11,1,11,0.00
2014-6-23,89.9,68.2,50.2,55.2,50.6,47.0,93,59,24,29.93,29.86,10,1,10,0.00
2014-6-24,86.5,67.9,53.2,55.4,51.0,46.1,83,59,26,29.96,29.92,13,1,13,0.00
2014-6-25,75.2,64.2,55.1,59.3,56.1,52.4,92,76,57,29.99,29.93,11,1,11,0.00
2014-6-26,80.5,67.1,60.0,58.0,54.3,46.2,88,66,35,29.98,29.91,9,1,9,0.00
2014-6-27,73.8,61.2,56.6,56.8,54.7,53.2,90,80,53,29.97,29.94,6,0,6,0.00
2014-6-28,87.5,73.7,56.0,56.6,53.1,45.2,91,52,24,29.94,29.85,11,1,11,0.00
2014-6-29,97.5,75.8,53.6,55.0,51.0,45.1,89,49,20,29.92,29.78,9,0,9,0.00
2014-6-30,104.8,80.7,58.9,54.3,48.8,40.3,72,38,12,29.81,29.72,10,0,10,0.00
2014-7-1,88.7,71.0,57.9,58.8,55.5,52.5,86,61,35,29.81,29.73,10,1,11,0.00
2014-7-2,89.3,67.8,56.0,59.0,55.3,52.8,92,68,35,29.88,29.80,11,1,11,0.00
2014-7-3,89.8,69.8,55.2,57.7,54.2,51.3,91,62,33,29.90,29.83,15,1,15,0.00
2014-7-4,92.2,70.6,53.2,58.0,51.0,40.7,94,57,17,29.97,29.86,11,1,11,0.00
2014-7-5,94.3,72.4,51.4,55.6,47.4,35.6,95,51,14,30.04,29.96,9,1,9,0.00
2014-7-6,99.8,74.9,52.4,53.4,44.0,23.4,82,42,8,30.01,29.88,10,0,10,0.00
2014-7-7,87.0,71.9,59.9,57.6,53.3,46.4,80,54,28,29.89,29.79,5,0,5,0.00
2014-7-8,92.9,71.7,58.6,58.4,55.4,53.7,85,60,28,29.88,29.81,10,1,10,0.00
2014-7-9,87.2,69.3,54.5,59.4,56.0,52.5,96,67,37,29.92,29.79,12,1,12,0.00
2014-7-10,84.0,68.2,55.3,59.0,55.9,52.9,93,68,40,29.92,29.81,17,1,17,0.00
2014-7-11,79.4,66.9,57.3,57.6,55.4,53.5,90,69,45,30.05,29.91,8,1,13,0.00
2014-7-12,83.3,67.7,58.0,57.8,55.3,53.5,86,67,40,30.07,29.97,10,1,11,0.00
2014-7-13,95.0,71.4,55.8,59.1,55.8,53.2,92,63,28,30.02,29.85,9,0,9,0.00
2014-7-14,102.7,78.4,59.4,59.9,56.0,44.7,87,52,16,29.88,29.80,12,1,12,0.00
2014-7-15,94.0,75.3,63.0,63.8,59.4,55.2,78,60,30,29.95,29.85,10,1,10,0.00
2014-7-16,86.7,69.9,61.3,61.9,58.5,56.2,90,70,36,30.00,29.92,11,1,11,0.00
2014-7-17,81.0,68.9,60.9,59.7,57.4,56.2,86,69,45,29.98,29.91,16,1,16,0.00
2014-7-18,80.0,68.3,60.7,59.8,57.4,55.8,87,70,49,29.99,29.89,13,1,13,0.00
2014-7-19,88.8,70.6,57.7,60.3,57.6,55.1,92,67,36,29.94,29.86,11,1,11,0.00
2014-7-20,82.0,69.4,62.0,61.9,59.0,57.4,87,71,48,29.96,29.89,13,1,13,0.00
2014-7-21,80.5,69.8,61.8,61.0,59.0,56.1,85,70,50,30.03,29.95,13,1,13,0.00
2014-7-22,84.8,69.1,60.2,60.1,58.0,55.7,87,70,40,30.09,30.00,12,1,13,0.00
2014-7-23,83.3,71.0,63.0,60.7,58.6,56.9,85,66,43,30.12,30.01,13,1,13,0.00
2014-7-24,97.5,75.6,56.4,60.2,56.1,50.7,96,57,23,30.03,29.79,8,0,8,0.00
2014-7-25,102.8,81.1,58.0,54.2,49.4,42.3,77,39,13,29.86,29.77,7,0,7,0.00
2014-7-26,102.3,79.9,59.7,56.6,49.8,36.7,77,40,11,29.91,29.83,11,1,11,0.00
2014-7-27,100.0,80.2,67.9,59.0,52.6,38.3,65,42,13,29.95,29.86,8,1,8,0.00
2014-7-28,98.1,74.7,59.0,59.7,56.0,51.1,87,56,22,30.01,29.94,10,0,10,0.00
2014-7-29,97.1,78.6,62.8,60.2,52.9,38.3,79,47,15,30.02,29.92,10,1,10,0.00
2014-7-30,100.0,78.3,61.2,60.4,55.8,45.2,81,50,20,29.96,29.88,9,0,9,0.00
2014-7-31,98.8,77.1,58.4,61.0,55.4,48.9,88,53,19,29.94,29.83,8,0,8,0.00
2014-8-1,102.8,80.2,62.0,61.4,53.5,26.1,84,47,7,29.87,29.80,9,0,9,0.00
2014-8-2,89.2,71.0,58.6,59.8,57.0,54.7,91,65,36,29.91,29.83,9,1,9,0.00
2014-8-3,85.8,66.9,56.9,60.0,56.7,54.7,94,73,39,29.95,29.85,10,1,10,0.00
2014-8-4,81.5,67.5,58.6,59.2,56.9,55.0,90,71,45,29.97,29.89,3,0,9,0.00
2014-8-5,92.7,73.3,60.9,62.3,59.4,56.0,86,65,35,30.04,29.95,9,0,9,0.00
2014-8-6,90.8,77.0,66.4,64.3,59.7,54.9,79,58,34,29.99,29.90,10,1,10,0.00
2014-8-7,86.9,70.8,58.9,62.2,57.1,54.4,91,65,36,29.94,29.85,11,1,11,0.00
2014-8-8,90.5,70.6,56.3,59.3,55.3,51.6,93,63,28,29.91,29.81,10,1,10,0.00
2014-8-9,81.3,65.7,56.7,58.3,54.9,52.1,89,70,44,29.97,29.86,12,1,12,0.00
2014-8-10,84.1,66.8,54.6,58.6,55.3,51.8,93,70,39,29.98,29.88,12,1,12,0.00
2014-8-11,89.5,69.8,54.9,60.7,56.6,53.1,95,68,33,29.94,29.84,11,1,11,0.00
2014-8-12,87.5,67.6,55.2,58.0,55.7,47.6,95,69,27,29.95,29.87,14,1,14,0.00
2014-8-13,86.0,69.4,56.9,58.5,56.3,53.1,91,67,35,29.98,29.88,10,1,10,0.00
2014-8-14,88.0,71.4,57.3,61.2,55.5,48.6,93,62,29,29.94,29.85,11,1,11,0.00
2014-8-15,91.8,72.3,56.2,59.9,54.6,49.2,92,59,24,29.98,29.89,9,0,9,0.00
2014-8-16,91.3,71.3,56.6,60.6,54.3,41.7,94,61,26,30.02,29.90,9,1,9,0.00
2014-8-17,90.8,69.5,54.1,58.5,53.8,45.1,95,63,27,30.01,29.86,11,0,11,0.00
2014-8-18,82.5,64.3,55.0,60.2,56.4,52.5,94,78,45,29.89,29.77,11,1,11,0.00
2014-8-19,81.9,67.2,59.2,59.9,57.7,55.8,89,73,46,29.86,29.76,12,1,12,0.00
2014-8-20,80.8,68.3,60.3,59.9,57.5,55.4,88,70,44,29.90,29.82,14,1,14,0.00
2014-8-21,92.3,70.5,55.7,60.6,57.2,48.9,96,67,24,29.94,29.85,9,1,9,0.00
2014-8-22,87.5,69.0,58.6,60.0,57.1,53.9,92,70,34,29.91,29.84,9,1,9,0.00
2014-8-23,85.5,67.2,52.3,58.2,54.6,50.1,97,69,30,29.94,29.80,9,1,9,0.00
2014-8-24,82.8,67.1,54.5,58.9,55.9,52.6,94,71,40,29.89,29.77,10,1,10,0.00
2014-8-25,77.8,65.6,58.6,58.1,56.2,54.4,89,73,47,29.93,29.81,9,1,14,0.00
2014-8-26,88.1,68.4,54.0,58.0,55.0,51.7,94,66,32,30.00,29.88,9,0,9,0.00
2014-8-27,96.0,73.3,55.7,59.6,55.2,50.5,93,59,24,30.04,29.93,8,0,8,0.00
2014-8-28,95.5,72.9,57.1,60.3,56.5,53.2,93,62,26,30.05,29.88,10,0,10,0.00
2014-8-29,90.1,69.5,57.0,61.7,57.3,53.3,94,68,33,29.93,29.83,9,0,9,0.00
2014-8-30,94.7,74.0,57.7,57.9,53.2,38.7,89,56,15,29.89,29.81,8,0,9,0.00
2014-8-31,93.3,72.5,57.2,59.7,55.3,41.5,94,61,22,29.91,29.79,8,0,8,0.00
2014-9-1,100.0,76.8,54.9,57.6,52.6,46.5,90,50,19,29.83,29.70,8,0,8,0.00
2014-9-2,86.3,71.6,59.0,60.7,57.7,51.4,90,64,41,29.81,29.72,10,1,10,0.00
2014-9-3,89.5,69.0,55.5,59.2,56.9,53.8,96,70,35,29.78,29.65,8,0,8,0.00
2014-9-4,88.8,69.8,57.4,59.7,56.9,51.9,94,68,33,29.77,29.67,8,0,8,0.00
2014-9-5,87.5,67.6,55.9,60.5,56.9,54.0,95,72,36,29.89,29.77,11,1,12,0.00
2014-9-6,86.5,66.2,54.1,58.3,55.0,52.0,95,71,36,29.95,29.83,7,0,9,0.00
2014-9-7,85.7,65.3,51.8,56.8,53.8,50.1,95,70,36,29.89,29.76,8,0,12,0.00
2014-9-8,76.4,62.5,53.2,54.9,52.5,50.6,94,72,45,29.94,29.82,12,1,12,0.00
2014-9-9,87.5,66.5,49.8,57.0,52.2,41.2,96,66,22,29.99,29.86,6,0,7,0.00
2014-9-10,100.0,74.4,51.5,56.5,50.8,42.3,95,53,15,29.93,29.78,4,0,6,0.00
2014-9-11,100.5,77.1,54.1,54.2,48.6,35.4,88,45,12,29.88,29.76,7,0,7,0.00
2014-9-12,102.3,77.6,55.7,57.7,52.2,42.8,81,47,15,29.86,29.73,7,0,7,0.00
2014-9-13,97.5,75.6,60.4,60.8,56.1,46.0,87,55,22,29.82,29.71,8,0,9,0.00
2014-9-14,92.5,73.9,57.2,59.1,52.9,43.7,91,54,20,29.83,29.75,9,0,9,0.00
2014-9-15,85.5,69.5,57.8,59.2,55.0,51.0,91,63,37,29.92,29.80,5,0,14,0.00
2014-9-16,91.3,70.1,54.1,58.4,54.7,50.6,91,63,27,29.92,29.76,7,0,9,0.00
2014-9-17,90.2,71.1,56.0,61.5,56.3,49.1,95,64,26,29.80,29.70,10,1,14,0.00
2014-9-18,83.1,72.7,62.1,63.7,61.3,57.7,88,69,45,29.87,29.75,11,1,11,0.00
2014-9-19,85.3,69.4,57.3,62.5,59.1,55.6,95,73,43,29.90,29.80,9,0,9,0.00
2014-9-20,85.0,68.7,59.5,63.1,59.5,57.5,95,75,42,29.93,29.84,14,1,14,0.00
2014-9-21,75.7,66.6,61.8,61.7,59.0,57.5,86,77,60,30.00,29.90,6,1,12,0.00
2014-9-22,87.0,69.9,62.4,60.2,58.0,55.5,86,69,37,30.03,29.91,9,0,9,0.00
2014-9-23,86.6,68.9,56.0,62.1,58.1,54.3,95,72,37,29.99,29.87,9,0,9,0.00
2014-9-24,83.7,70.7,64.7,63.9,61.7,58.9,89,75,45,29.95,29.84,9,1,12,0.00
2014-9-25,76.6,65.2,57.5,62.8,57.5,52.5,95,78,45,30.00,29.86,6,0,8,0.35
2014-9-26,77.3,64.7,55.9,58.9,55.4,52.2,95,74,45,29.99,29.88,11,1,12,0.00
2014-9-27,78.8,65.2,56.3,58.0,55.9,53.5,94,74,45,29.92,29.80,6,0,10,0.00
2014-9-28,77.3,64.0,54.5,59.4,55.9,52.6,95,77,48,29.94,29.81,4,0,4,0.00
2014-9-29,80.7,64.3,54.2,59.8,56.1,53.0,97,78,42,30.02,29.92,7,0,10,0.00
2014-9-30,82.3,65.1,52.2,59.4,55.2,42.2,97,74,25,29.97,29.81,6,0,6,0.01
2014-10-1,88.3,68.7,52.0,55.3,43.1,28.8,95,51,12,29.93,29.83,8,0,8,0.00
2014-10-2,92.7,68.6,47.8,47.9,43.6,36.3,84,48,17,30.03,29.92,5,0,7,0.00
2014-10-3,97.2,71.7,49.4,48.8,45.3,37.4,90,48,13,30.09,29.97,5,0,6,0.00
2014-10-4,100.1,72.3,49.5,48.0,43.5,32.5,87,44,10,30.04,29.89,4,0,5,0.00
2014-10-5,101.3,72.9,50.1,51.2,43.0,16.1,84,44,6,29.95,29.83,5,0,5,0.00
2014-10-6,100.3,73.7,51.3,54.8,46.5,33.1,86,47,12,29.92,29.79,7,0,7,0.00
2014-10-7,94.8,70.9,51.9,56.3,50.8,45.8,87,54,19,29.91,29.79,7,0,7,0.00
2014-10-8,95.7,71.3,52.1,54.2,50.1,37.1,93,56,15,29.90,29.80,9,0,9,0.00
2014-10-9,87.0,66.8,52.6,58.1,53.0,48.7,90,66,28,29.97,29.87,11,0,11,0.00
2014-10-10,81.3,64.8,51.8,58.0,54.1,50.0,96,72,36,30.06,29.95,7,0,7,0.00
2014-10-11,89.8,65.6,49.8,57.3,52.5,48.4,96,68,29,30.05,29.92,7,0,7,0.00
2014-10-12,94.4,71.8,53.6,51.9,36.2,16.5,86,39,6,30.00,29.87,9,0,9,0.00
2014-10-13,92.3,69.1,48.9,49.0,40.1,25.4,74,41,10,29.97,29.87,10,0,10,0.00
2014-10-14,75.0,63.4,51.0,56.9,53.3,48.0,94,71,50,29.92,29.79,15,1,15,0.00
2014-10-15,74.8,65.4,57.1,58.2,54.9,51.9,93,70,47,30.01,29.84,12,1,12,0.03
2014-10-16,76.2,60.4,49.5,54.3,49.9,44.4,96,72,37,30.03,29.91,8,0,8,0.00
2014-10-17,78.4,61.3,47.5,52.0,48.6,44.4,92,67,36,29.98,29.90,6,0,6,0.00
2014-10-18,82.3,64.5,49.7,56.5,52.6,47.7,94,69,37,29.99,29.85,5,0,5,0.00
2014-10-19,81.5,64.2,51.5,59.6,55.3,50.0,96,76,42,29.92,29.82,10,0,10,0.00
2014-10-20,70.8,62.2,54.9,59.4,55.6,51.4,92,80,57,30.05,29.89,8,0,8,0.01
2014-10-21,74.2,58.3,46.5,53.0,48.5,39.7,97,74,31,30.11,29.99,7,0,7,0.00
2014-10-22,78.2,60.4,45.4,56.3,49.7,43.7,96,72,33,30.07,29.98,5,0,5,0.00
2014-10-23,77.7,63.5,52.8,57.8,54.6,51.1,95,75,44,30.07,29.94,4,0,4,0.00
2014-10-24,80.4,62.3,48.6,57.9,53.4,47.5,97,75,39,29.98,29.84,9,0,9,0.01
2014-10-25,72.6,63.8,56.1,59.8,55.3,52.1,95,75,51,30.13,29.89,13,1,13,0.16
2014-10-26,71.0,57.8,48.4,54.1,48.5,41.5,98,75,35,30.16,30.04,9,0,9,0.01
2014-10-27,75.4,55.7,41.7,50.8,46.0,40.7,97,74,32,30.07,29.98,3,0,7,0.00
2014-10-28,79.8,58.5,42.8,50.4,45.8,39.1,97,69,27,30.13,30.03,4,0,4,0.00
2014-10-29,83.9,62.3,46.3,49.8,46.2,43.3,94,62,26,30.12,29.96,7,0,7,0.00
2014-10-30,84.0,62.3,50.7,56.0,50.2,42.5,88,68,24,29.97,29.84,9,0,9,0.00
2014-10-31,66.8,58.6,53.9,57.3,54.0,51.6,95,85,68,29.90,29.71,12,0,12,0.14
2014-11-1,66.0,55.8,47.3,52.2,49.3,45.5,94,80,52,30.03,29.71,10,0,10,0.00
2014-11-2,69.0,51.9,40.6,50.0,43.8,39.4,97,78,35,30.17,30.03,7,0,7,0.01
2014-11-3,73.0,53.1,39.7,46.6,42.4,38.6,97,72,31,30.27,30.17,9,0,9,0.00
2014-11-4,75.2,55.4,39.4,48.9,42.9,38.3,97,69,31,30.32,30.21,4,0,4,0.00
2014-11-5,76.7,56.9,43.2,49.7,47.2,41.6,94,73,36,30.24,30.07,1,0,8,0.00
2014-11-6,81.5,60.5,46.0,55.3,49.7,44.4,95,72,31,30.22,30.13,8,0,8,0.00
2014-11-7,81.0,60.0,48.2,57.7,52.0,47.1,97,79,36,30.23,30.07,4,0,4,0.01
2014-11-8,80.7,60.2,44.5,53.7,49.6,43.6,98,73,37,30.12,29.99,7,0,7,0.00
2014-11-9,81.8,59.9,44.1,54.7,49.4,42.7,97,73,32,30.03,29.80,5,0,5,0.00
2014-11-10,80.8,58.9,44.9,56.4,50.3,43.8,97,77,37,29.84,29.75,6,0,6,0.01
2014-11-11,69.1,59.5,51.2,52.8,50.2,48.4,96,72,50,29.96,29.83,11,0,11,0.00
2014-11-12,70.2,60.6,56.1,50.6,47.8,44.2,80,64,42,30.01,29.94,6,0,7,0.00
2014-11-13,66.2,60.1,54.1,59.4,55.9,51.3,96,86,74,30.07,29.92,4,0,8,0.45
2014-11-14,68.7,56.2,46.7,56.1,51.3,45.9,98,85,57,30.10,30.04,4,0,8,0.01
2014-11-15,69.0,54.1,43.9,53.2,48.7,43.0,98,84,53,30.19,30.08,7,0,7,0.00
2014-11-16,61.8,50.2,41.8,46.2,34.3,23.1,97,62,25,30.27,30.18,12,0,12,0.01
2014-11-17,66.8,49.7,36.2,42.0,36.5,28.8,93,65,31,30.27,30.11,8,0,8,0.00
2014-11-18,62.9,50.6,39.6,46.3,42.9,37.6,94,77,49,30.16,30.06,8,0,8,0.00
2014-11-19,68.0,56.6,48.9,56.1,50.8,44.8,95,82,49,30.12,30.01,14,0,14,0.06
2014-11-20,58.9,54.2,49.2,55.6,52.7,48.2,97,95,87,30.11,29.98,4,0,4,1.13
2014-11-21,63.7,55.7,49.3,53.5,51.3,48.5,97,86,66,30.13,30.02,3,0,3,0.00
2014-11-22,68.3,58.8,48.2,61.0,54.4,46.6,95,85,66,30.24,30.05,11,1,11,0.13
2014-11-23,65.0,51.4,40.3,52.2,44.1,38.5,97,80,42,30.34,30.24,4,0,4,0.01
2014-11-24,70.5,49.6,36.3,43.9,38.2,32.4,97,71,27,30.43,30.33,3,0,3,0.01
2014-11-25,65.8,49.7,37.6,49.4,43.1,36.0,97,80,53,30.48,30.34,9,0,9,0.00
2014-11-26,69.9,51.9,39.0,50.9,44.5,37.9,97,79,45,30.34,30.20,5,0,6,0.00
2014-11-27,74.6,52.5,40.0,51.0,45.5,39.0,97,81,41,30.22,30.05,2,0,2,0.01
2014-11-28,68.5,49.5,35.1,51.5,44.7,34.3,97,85,49,30.07,29.86,5,0,7,0.00
2014-11-29,67.7,58.2,52.6,57.3,53.8,47.9,96,86,67,29.87,29.74,7,0,7,0.10
2014-11-30,59.0,54.5,51.2,55.1,52.6,49.8,97,94,82,30.03,29.73,6,0,6,0.55
2014-12-1,66.8,55.8,50.2,59.0,53.9,49.3,98,94,72,30.13,29.96,5,0,5,0.05
2014-12-2,56.7,54.4,53.1,54.8,53.3,52.3,98,96,92,29.97,29.68,10,0,10,1.69
2014-12-3,63.9,58.2,54.2,60.9,56.8,53.7,98,95,81,29.89,29.71,18,1,18,2.05
2014-12-4,68.9,57.8,51.8,60.9,54.7,50.9,98,90,65,30.02,29.87,7,0,7,0.08
2014-12-5,68.9,58.2,49.3,59.6,54.6,48.8,98,88,68,30.08,29.97,7,0,7,0.02
2014-12-6,70.9,61.4,53.3,60.5,56.7,52.2,96,85,61,30.22,30.08,4,0,6,0.01
2014-12-7,62.7,55.0,49.1,57.8,53.4,48.2,98,94,83,30.21,30.12,7,0,7,0.01
2014-12-8,70.9,56.8,49.6,58.0,52.6,48.9,98,87,57,30.18,30.10,4,0,4,0.01
2014-12-9,66.8,55.3,48.4,57.3,52.3,47.5,98,90,68,30.20,30.07,4,0,4,0.01
2014-12-10,66.7,58.3,51.5,56.2,52.8,50.2,97,83,59,30.08,29.73,14,1,14,0.00
2014-12-11,65.8,57.3,49.6,56.4,52.1,48.4,97,84,62,29.74,29.52,19,2,19,4.11
2014-12-12,57.1,49.7,44.3,52.5,47.9,43.5,98,94,76,30.08,29.64,1,0,2,0.30
2014-12-13,54.7,47.1,42.0,49.8,45.4,41.5,98,94,81,30.23,30.08,1,0,3,0.01
2014-12-14,57.2,48.1,41.9,49.2,45.4,41.1,98,91,73,30.16,30.00,9,0,9,0.03
2014-12-15,58.4,50.6,47.0,52.9,48.7,45.8,97,94,76,30.01,29.82,7,0,7,1.39
2014-12-16,62.2,51.6,45.1,51.9,47.6,44.4,98,88,58,29.96,29.82,5,0,11,0.61
2014-12-17,59.1,50.3,44.6,50.8,47.7,43.8,98,91,68,30.08,29.93,10,0,10,0.30
2014-12-18,61.9,52.6,49.0,55.0,50.1,48.0,97,92,74,30.19,30.06,6,0,6,0.02
2014-12-19,60.1,55.1,48.7,54.6,52.1,47.8,97,90,76,30.17,30.10,12,0,12,0.14
2014-12-20,61.2,56.9,53.7,57.0,53.7,51.3,98,89,71,30.25,30.11,5,0,5,0.09
2014-12-21,65.7,59.7,54.9,59.6,56.9,52.9,95,90,79,30.31,30.23,6,0,6,0.00
2014-12-22,69.8,58.8,49.5,58.0,55.0,48.6,97,88,65,30.28,30.16,2,0,4,0.00
2014-12-23,71.3,54.7,44.5,54.7,48.5,44.0,98,82,47,30.22,30.12,7,0,7,0.01
2014-12-24,61.7,48.7,41.5,54.8,45.6,39.3,98,89,75,30.12,29.93,11,0,11,0.04
2014-12-25,58.2,46.8,35.6,39.4,33.4,26.1,95,64,31,30.15,30.05,10,0,10,0.00
2014-12-26,57.6,47.7,36.2,33.5,30.4,26.1,85,53,32,30.27,30.09,12,0,12,0.00
2014-12-27,55.4,41.1,30.2,39.3,34.5,28.6,95,79,51,30.40,30.27,5,0,5,0.00
2014-12-28,60.3,44.5,34.6,43.6,38.7,33.5,97,82,50,30.38,30.23,4,0,4,0.00
2014-12-29,57.2,45.0,37.8,44.7,39.9,36.1,96,83,57,30.24,30.09,6,0,6,0.00
2014-12-30,53.3,43.4,33.1,36.4,25.2,13.0,96,55,26,30.25,30.09,18,2,18,0.01
2014-12-31,58.2,46.3,36.6,22.9,13.2,5.4,48,27,13,30.27,30.07,7,1,15,0.00
2015-1-1,54.7,42.1,30.5,31.5,25.3,12.9,89,54,25,30.18,30.06,9,0,9,0.00
2015-1-2,55.1,37.6,25.7,34.4,29.9,24.2,96,77,43,30.24,30.11,5,0,5,0.00